createdAt,value
2023-02-16T00:02:50.781Z,55.40
2023-02-16T00:05:54.511Z,56.09
2023-02-16T00:08:59.848Z,55.90
2023-02-16T00:12:20.847Z,56.12
2023-02-16T00:15:24.744Z,57.42
2023-02-16T00:18:28.372Z,57.03
2023-02-16T00:21:32.648Z,57.36
2023-02-16T00:24:38.115Z,57.29
2023-02-16T00:27:41.767Z,57.49
2023-02-16T00:30:45.519Z,57.79
2023-02-16T00:33:51.051Z,57.45
2023-02-16T00:36:58.295Z,57.23
2023-02-16T00:40:04.143Z,57.24
2023-02-16T00:43:09.029Z,57.42
2023-02-16T00:46:14.859Z,57.62
2023-02-16T00:49:19.785Z,58.13
2023-02-16T00:52:36.269Z,57.85
2023-02-16T00:55:43.084Z,58.30
2023-02-16T00:58:47.180Z,58.85
2023-02-16T01:01:51.613Z,58.21
2023-02-16T01:04:55.568Z,57.94
2023-02-16T01:08:17.073Z,57.71
2023-02-16T01:11:24.239Z,57.90
2023-02-16T01:14:28.216Z,57.46
2023-02-16T01:17:32.030Z,58.23
2023-02-16T01:20:36.794Z,58.05
2023-02-16T01:23:40.509Z,58.65
2023-02-16T01:26:49.112Z,60.21
2023-02-16T01:29:52.727Z,60.59
2023-02-16T01:32:56.807Z,61.13
2023-02-16T01:36:00.704Z,60.70
2023-02-16T01:39:05.476Z,60.36
2023-02-16T01:42:31.195Z,60.03
2023-02-16T01:45:39.427Z,59.68
2023-02-16T01:48:43.248Z,59.74
2023-02-16T01:51:54.670Z,58.97
2023-02-16T01:55:06.780Z,59.56
2023-02-16T01:58:16.717Z,58.42
2023-02-16T02:01:54.621Z,59.23
2023-02-16T02:05:19.407Z,58.02
2023-02-16T02:08:30.897Z,58.16
2023-02-16T02:11:38.749Z,58.12
2023-02-16T02:14:44.444Z,57.67
2023-02-16T02:17:49.853Z,57.71
2023-02-16T02:21:24.313Z,57.62
2023-02-16T02:25:05.592Z,58.51
2023-02-16T02:28:17.124Z,59.10
2023-02-16T02:31:31.684Z,59.21
2023-02-16T02:34:48.708Z,58.85
2023-02-16T02:38:00.169Z,59.37
2023-02-16T02:41:15.122Z,59.55
2023-02-16T02:44:24.173Z,59.32
2023-02-16T02:47:40.043Z,59.70
2023-02-16T02:51:11.996Z,59.85
2023-02-16T02:54:38.042Z,60.34
2023-02-16T02:58:15.389Z,59.90
2023-02-16T03:01:23.372Z,59.24
2023-02-16T03:04:32.378Z,59.35
2023-02-16T03:07:48.194Z,59.55
2023-02-16T03:11:13.080Z,59.09
2023-02-16T03:14:20.612Z,58.42
2023-02-16T03:17:50.497Z,58.48
2023-02-16T03:21:11.902Z,58.44
2023-02-16T03:24:38.030Z,58.79
2023-02-16T03:28:01.855Z,59.50
2023-02-16T03:31:07.976Z,61.29
2023-02-16T03:34:13.800Z,60.35
2023-02-16T03:37:17.901Z,59.97
2023-02-16T03:40:33.516Z,59.13
2023-02-16T03:43:37.090Z,58.99
2023-02-16T03:46:40.738Z,58.82
2023-02-16T03:49:45.855Z,58.38
2023-02-16T03:52:49.993Z,58.36
2023-02-16T03:55:53.663Z,58.44
2023-02-16T03:58:57.441Z,58.41
2023-02-16T04:02:01.463Z,58.91
2023-02-16T04:05:07.315Z,58.24
2023-02-16T04:08:11.774Z,57.81
2023-02-16T04:11:32.440Z,58.12
2023-02-16T04:14:36.141Z,58.49
2023-02-16T04:17:39.801Z,59.20
2023-02-16T04:20:45.392Z,58.78
2023-02-16T04:23:48.967Z,58.84
2023-02-16T04:26:52.791Z,59.58
2023-02-16T04:29:56.535Z,58.76
2023-02-16T04:33:00.191Z,58.66
2023-02-16T04:36:05.608Z,58.49
2023-02-16T04:39:09.293Z,59.72
2023-02-16T04:42:12.941Z,59.21
2023-02-16T04:45:16.519Z,59.10
2023-02-16T04:48:20.196Z,59.34
2023-02-16T04:51:25.642Z,60.02
2023-02-16T04:54:29.295Z,59.49
2023-02-16T04:57:32.874Z,60.47
2023-02-16T05:00:37.552Z,60.11
2023-02-16T05:03:41.187Z,59.26
2023-02-16T05:06:46.488Z,59.45
2023-02-16T05:09:50.219Z,59.28
2023-02-16T05:13:11.132Z,58.97
2023-02-16T05:16:14.988Z,59.53
2023-02-16T05:19:18.787Z,58.83
2023-02-16T05:22:24.366Z,58.83
2023-02-16T05:25:28.116Z,59.69
2023-02-16T05:28:31.915Z,59.46
2023-02-16T05:31:35.948Z,59.77
2023-02-16T05:34:39.768Z,60.04
2023-02-16T05:37:45.038Z,60.54
2023-02-16T05:40:49.261Z,60.07
2023-02-16T05:43:54.489Z,59.82
2023-02-16T05:46:58.263Z,59.75
2023-02-16T05:50:01.872Z,59.39
2023-02-16T05:53:07.140Z,59.27
2023-02-16T05:56:11.425Z,60.94
2023-02-16T05:59:16.253Z,61.24
2023-02-16T06:02:20.091Z,61.48
2023-02-16T06:05:23.864Z,60.69
2023-02-16T06:08:29.606Z,59.57
2023-02-16T06:11:39.222Z,58.07
2023-02-16T06:14:42.994Z,58.46
2023-02-16T06:17:46.712Z,58.30
2023-02-16T06:20:50.935Z,58.08
2023-02-16T06:23:56.224Z,58.09
2023-02-16T06:27:00.057Z,58.03
2023-02-16T06:30:04.554Z,57.83
2023-02-16T06:33:08.463Z,55.49
2023-02-16T06:36:13.203Z,55.21
2023-02-16T06:39:18.443Z,54.77
2023-02-16T06:42:22.242Z,54.00
2023-02-16T06:45:25.940Z,54.82
2023-02-16T06:48:29.801Z,53.16
2023-02-16T06:51:33.704Z,52.62
2023-02-16T06:54:38.900Z,53.29
2023-02-16T06:57:42.695Z,52.48
2023-02-16T07:00:46.667Z,52.81
2023-02-16T07:03:51.927Z,51.47
2023-02-16T07:06:55.845Z,50.05
2023-02-16T07:10:02.921Z,49.88
2023-02-16T07:13:06.683Z,49.52
2023-02-16T07:16:11.237Z,49.99
2023-02-16T07:19:15.031Z,48.60
2023-02-16T07:22:22.861Z,47.63
2023-02-16T07:25:30.241Z,47.83
2023-02-16T07:28:34.381Z,47.27
2023-02-16T07:31:38.191Z,47.55
2023-02-16T07:34:42.071Z,48.55
2023-02-16T07:37:45.927Z,48.35
2023-02-16T07:40:51.042Z,47.45
2023-02-16T07:43:55.020Z,47.15
2023-02-16T07:46:58.777Z,46.77
2023-02-16T07:50:02.752Z,46.53
2023-02-16T07:53:06.683Z,45.99
2023-02-16T07:56:20.973Z,45.11
2023-02-16T07:59:24.767Z,43.68
2023-02-16T08:02:28.805Z,44.88
2023-02-16T08:05:32.699Z,44.65
2023-02-16T08:08:37.144Z,43.98
2023-02-16T08:11:42.867Z,43.02
2023-02-16T08:14:48.108Z,43.61
2023-02-16T08:17:51.931Z,42.98
2023-02-16T08:21:04.214Z,43.66
2023-02-16T08:24:09.812Z,43.60
2023-02-16T08:27:15.134Z,42.77
2023-02-16T08:30:20.802Z,42.31
2023-02-16T08:33:25.923Z,42.60
2023-02-16T08:36:32.680Z,41.75
2023-02-16T08:39:37.407Z,41.31
2023-02-16T08:42:42.751Z,43.32
2023-02-16T08:45:47.867Z,42.00
2023-02-16T08:48:51.752Z,40.92
2023-02-16T08:51:57.632Z,40.61
2023-02-16T08:55:01.428Z,40.42
2023-02-16T08:58:06.783Z,40.21
2023-02-16T09:01:13.286Z,39.63
2023-02-16T09:04:18.079Z,39.63
2023-02-16T09:07:22.506Z,39.49
2023-02-16T09:10:26.273Z,39.02
2023-02-16T09:13:31.574Z,38.90
2023-02-16T09:16:38.695Z,38.54
2023-02-16T09:19:43.819Z,37.82
2023-02-16T09:22:48.790Z,37.99
2023-02-16T09:25:52.529Z,37.61
2023-02-16T09:28:59.103Z,37.91
2023-02-16T09:32:03.250Z,37.12
2023-02-16T09:35:07.963Z,36.47
2023-02-16T09:38:11.731Z,36.71
2023-02-16T09:41:26.585Z,36.31
2023-02-16T09:44:40.040Z,36.31
2023-02-16T09:47:48.173Z,36.22
2023-02-16T09:50:55.458Z,36.56
2023-02-16T09:54:04.117Z,36.44
2023-02-16T09:57:17.952Z,35.83
2023-02-16T10:00:36.012Z,36.09
2023-02-16T10:03:56.646Z,35.42
2023-02-16T10:07:11.063Z,35.67
2023-02-16T10:10:20.433Z,35.76
2023-02-16T10:13:34.083Z,35.18
2023-02-16T10:16:44.195Z,35.69
2023-02-16T10:19:54.905Z,35.21
2023-02-16T10:23:06.735Z,34.81
2023-02-16T10:26:19.216Z,35.45
2023-02-16T10:29:24.448Z,34.96
2023-02-16T10:32:37.301Z,34.72
2023-02-16T10:35:47.986Z,34.73
2023-02-16T10:38:59.297Z,35.13
2023-02-16T10:42:10.122Z,34.63
2023-02-16T10:45:27.205Z,33.89
2023-02-16T10:48:33.624Z,33.94
2023-02-16T10:51:40.762Z,33.83
2023-02-16T10:54:44.620Z,34.14
2023-02-16T10:57:56.266Z,34.72
2023-02-16T11:01:08.681Z,34.49
2023-02-16T11:04:31.896Z,33.90
2023-02-16T11:07:35.689Z,33.87
2023-02-16T11:10:42.886Z,33.85
2023-02-16T11:13:50.260Z,33.30
2023-02-16T11:17:05.803Z,32.78
2023-02-16T11:20:31.349Z,32.48
2023-02-16T11:23:36.372Z,33.20
2023-02-16T11:26:40.212Z,32.70
2023-02-16T11:29:43.979Z,32.13
2023-02-16T11:32:47.829Z,32.51
2023-02-16T11:35:53.306Z,33.62
2023-02-16T11:38:59.739Z,33.19
2023-02-16T11:42:06.574Z,32.97
2023-02-16T11:45:22.974Z,34.05
2023-02-16T11:48:29.450Z,33.87
2023-02-16T11:51:36.740Z,33.29
2023-02-16T11:54:50.566Z,33.12
2023-02-16T11:57:56.652Z,32.65
2023-02-16T12:01:11.251Z,32.83
2023-02-16T12:04:29.457Z,32.59
2023-02-16T12:07:42.454Z,33.12
2023-02-16T12:11:03.409Z,32.79
2023-02-16T12:14:24.562Z,33.07
2023-02-16T12:17:49.501Z,33.10
2023-02-16T12:21:00.366Z,33.03
2023-02-16T12:24:18.171Z,32.43
2023-02-16T12:27:27.552Z,32.55
2023-02-16T12:30:42.304Z,32.85
2023-02-16T12:33:53.431Z,33.24
2023-02-16T12:37:05.909Z,33.14
2023-02-16T12:40:25.821Z,33.74
2023-02-16T12:43:39.249Z,32.95
2023-02-16T12:46:44.973Z,32.84
2023-02-16T12:49:55.263Z,32.67
2023-02-16T12:53:04.169Z,32.38
2023-02-16T12:56:14.267Z,32.32
2023-02-16T12:59:24.016Z,32.39
2023-02-16T13:02:33.587Z,32.72
2023-02-16T13:05:39.611Z,32.96
2023-02-16T13:08:49.979Z,32.66
2023-02-16T13:12:02.451Z,32.80
2023-02-16T13:15:14.708Z,32.16
2023-02-16T13:18:23.166Z,32.35
2023-02-16T13:25:29.424Z,32.98
2023-02-16T13:29:15.028Z,33.38
2023-02-16T13:32:43.718Z,32.92
2023-02-16T13:36:13.133Z,33.26
2023-02-16T13:39:36.066Z,33.63
2023-02-16T13:43:02.729Z,34.03
2023-02-16T13:46:14.599Z,33.73
2023-02-16T13:49:32.830Z,32.99
2023-02-16T13:52:39.399Z,32.81
2023-02-16T13:55:43.260Z,32.90
2023-02-16T13:58:47.046Z,33.00
2023-02-16T14:01:55.362Z,32.86
2023-02-16T14:05:05.879Z,33.37
2023-02-16T14:08:19.117Z,33.24
2023-02-16T14:11:22.946Z,33.75
2023-02-16T14:14:31.667Z,34.03
2023-02-16T14:17:37.195Z,33.67
2023-02-16T14:20:40.994Z,33.18
2023-02-16T14:23:46.564Z,33.23
2023-02-16T14:26:56.481Z,33.34
2023-02-16T14:30:02.967Z,33.14
2023-02-16T14:33:22.696Z,33.46
2023-02-16T14:36:27.914Z,34.08
2023-02-16T14:39:31.837Z,34.22
2023-02-16T14:42:37.656Z,34.30
2023-02-16T14:45:57.988Z,34.54
2023-02-16T14:49:39.985Z,34.86
2023-02-16T14:53:16.475Z,35.19
2023-02-16T14:56:40.743Z,35.63
2023-02-16T14:59:50.465Z,35.90
2023-02-16T15:03:00.536Z,35.58
2023-02-16T15:06:07.523Z,35.68
2023-02-16T15:09:19.796Z,35.94
2023-02-16T15:12:28.469Z,36.06
2023-02-16T15:15:44.994Z,36.48
2023-02-16T15:18:52.358Z,36.80
2023-02-16T15:22:10.594Z,37.32
2023-02-16T15:25:38.706Z,38.03
2023-02-16T15:28:43.903Z,38.31
2023-02-16T15:31:48.375Z,38.58
2023-02-16T15:34:52.254Z,38.87
2023-02-16T15:38:08.247Z,38.85
2023-02-16T15:41:16.364Z,39.15
2023-02-16T15:44:32.863Z,39.19
2023-02-16T15:47:36.663Z,39.37
2023-02-16T15:50:40.872Z,39.29
2023-02-16T15:53:51.836Z,39.47
2023-02-16T15:56:58.550Z,39.30
2023-02-16T16:00:07.538Z,39.50
2023-02-16T16:03:18.572Z,39.58
2023-02-16T16:06:22.301Z,39.85
2023-02-16T16:09:28.708Z,40.26
2023-02-16T16:12:34.188Z,40.42
2023-02-16T16:15:42.805Z,40.00
2023-02-16T16:18:49.981Z,40.14
2023-02-16T16:21:55.926Z,40.50
2023-02-16T16:24:59.689Z,41.39
2023-02-16T16:28:06.727Z,41.11
2023-02-16T16:31:13.854Z,41.23
2023-02-16T16:34:34.361Z,41.02
2023-02-16T16:37:38.487Z,41.28
2023-02-16T16:40:42.282Z,41.56
2023-02-16T16:43:55.819Z,41.57
2023-02-16T16:47:12.505Z,41.68
2023-02-16T16:50:39.637Z,42.11
2023-02-16T16:53:52.282Z,42.15
2023-02-16T16:56:56.067Z,42.07
2023-02-16T17:00:01.309Z,42.14
2023-02-16T17:03:07.642Z,42.10
2023-02-16T17:06:11.818Z,42.33
2023-02-16T17:09:16.981Z,42.89
2023-02-16T17:12:22.060Z,42.85
2023-02-16T17:15:35.880Z,43.31
2023-02-16T17:18:39.915Z,43.25
2023-02-16T17:21:44.160Z,43.47
2023-02-16T17:24:48.558Z,42.99
2023-02-16T17:27:52.451Z,43.05
2023-02-16T17:30:57.662Z,43.18
2023-02-16T17:34:02.032Z,43.28
2023-02-16T17:37:08.149Z,43.59
2023-02-16T17:40:17.547Z,43.73
2023-02-16T17:43:22.930Z,44.14
2023-02-16T17:46:28.888Z,44.08
2023-02-16T17:49:32.708Z,44.00
2023-02-16T17:52:37.444Z,43.98
2023-02-16T17:55:41.252Z,43.88
2023-02-16T17:58:45.580Z,44.07
2023-02-16T18:01:50.942Z,43.91
2023-02-16T18:04:56.310Z,44.47
2023-02-16T18:08:00.137Z,44.11
2023-02-16T18:11:04.165Z,44.35
2023-02-16T18:14:07.907Z,44.67
2023-02-16T18:17:14.642Z,45.02
2023-02-16T18:20:18.856Z,44.95
2023-02-16T18:23:22.792Z,45.00
2023-02-16T18:26:28.738Z,45.17
2023-02-16T18:29:32.703Z,45.17
2023-02-16T18:32:38.026Z,45.11
2023-02-16T18:35:41.900Z,45.55
2023-02-16T18:38:45.640Z,45.71
2023-02-16T18:41:49.475Z,45.53
2023-02-16T18:44:53.314Z,46.02
2023-02-16T18:47:58.608Z,46.21
2023-02-16T18:51:05.675Z,46.28
2023-02-16T18:54:09.475Z,46.66
2023-02-16T18:57:13.405Z,46.04
2023-02-16T19:00:18.688Z,45.96
2023-02-16T19:03:23.924Z,46.29
2023-02-16T19:06:28.425Z,46.68
2023-02-16T19:09:32.189Z,46.75
2023-02-16T19:12:36.106Z,47.14
2023-02-16T19:15:39.971Z,46.57
2023-02-16T19:18:45.221Z,46.40
2023-02-16T19:21:48.955Z,46.61
2023-02-16T19:24:52.737Z,46.44
2023-02-16T19:27:56.611Z,46.27
2023-02-16T19:31:02.865Z,46.65
2023-02-16T19:34:08.307Z,47.52
2023-02-16T19:37:12.065Z,47.16
2023-02-16T19:40:17.171Z,47.12
2023-02-16T19:43:21.473Z,47.38
2023-02-16T19:46:26.052Z,47.97
2023-02-16T19:49:31.390Z,48.17
2023-02-16T19:52:35.240Z,47.68
2023-02-16T19:55:42.151Z,48.22
2023-02-16T19:58:45.939Z,47.49
2023-02-16T20:01:49.847Z,47.51
2023-02-16T20:04:55.419Z,47.60
2023-02-16T20:07:59.229Z,48.09
2023-02-16T20:11:06.583Z,48.46
2023-02-16T20:14:11.274Z,48.40
2023-02-16T20:17:14.992Z,48.80
2023-02-16T20:20:20.398Z,48.78
2023-02-16T20:23:24.182Z,48.80
2023-02-16T20:26:31.836Z,48.70
2023-02-16T20:29:36.841Z,48.29
2023-02-16T20:32:41.225Z,48.65
2023-02-16T20:35:46.437Z,48.58
2023-02-16T20:38:51.551Z,49.12
2023-02-16T20:41:55.443Z,49.28
2023-02-16T20:44:59.110Z,49.14
2023-02-16T20:48:04.339Z,49.96
2023-02-16T20:51:09.965Z,49.54
2023-02-16T20:54:14.004Z,49.83
2023-02-16T20:57:26.413Z,50.09
2023-02-16T21:00:31.284Z,49.99
2023-02-16T21:03:35.058Z,50.10
2023-02-16T21:06:40.634Z,49.72
2023-02-16T21:09:44.307Z,49.58
2023-02-16T21:12:48.083Z,50.11
2023-02-16T21:15:51.928Z,50.59
2023-02-16T21:18:56.312Z,50.19
2023-02-16T21:22:01.587Z,50.22
2023-02-16T21:25:05.808Z,51.30
2023-02-16T21:28:09.704Z,51.25
2023-02-16T21:31:15.292Z,50.60
2023-02-16T21:34:19.112Z,50.91
2023-02-16T21:37:24.411Z,50.51
2023-02-16T21:40:45.430Z,50.38
2023-02-16T21:43:49.210Z,51.06
2023-02-16T21:46:52.973Z,50.53
2023-02-16T21:49:55.593Z,50.52
2023-02-16T21:53:00.979Z,50.04
2023-02-16T21:56:18.310Z,50.39
2023-02-16T21:59:22.934Z,50.59
2023-02-16T22:02:26.873Z,50.70
2023-02-16T22:05:30.740Z,51.68
2023-02-16T22:08:38.473Z,52.92
2023-02-16T22:11:42.873Z,51.72
2023-02-16T22:14:46.598Z,52.30
2023-02-16T22:17:50.579Z,52.03
2023-02-16T22:20:54.289Z,52.09
2023-02-16T22:24:00.976Z,51.18
2023-02-16T22:27:04.796Z,51.87
2023-02-16T22:30:09.852Z,52.37
2023-02-16T22:33:13.629Z,52.36
2023-02-16T22:36:17.324Z,51.58
2023-02-16T22:39:22.703Z,51.47
2023-02-16T22:42:26.562Z,52.38
2023-02-16T22:45:30.883Z,52.29
2023-02-16T22:48:34.818Z,52.91
2023-02-16T22:51:38.837Z,53.28
2023-02-16T22:54:44.205Z,54.38
2023-02-16T22:57:47.947Z,54.17
2023-02-16T23:00:52.361Z,54.16
2023-02-16T23:03:58.720Z,53.54
2023-02-16T23:07:02.556Z,54.20
2023-02-16T23:10:09.279Z,54.17
2023-02-16T23:13:13.149Z,54.19
2023-02-16T23:16:20.123Z,54.21
2023-02-16T23:19:26.623Z,55.13
2023-02-16T23:22:31.409Z,55.32
2023-02-16T23:25:36.585Z,55.11
2023-02-16T23:28:42.479Z,54.88
2023-02-16T23:34:52.168Z,54.83
2023-02-16T23:37:55.951Z,55.16
2023-02-16T23:41:03.275Z,54.68
2023-02-16T23:44:08.223Z,54.96
2023-02-16T23:47:11.940Z,54.49
2023-02-16T23:50:15.804Z,54.50
2023-02-16T23:53:20.405Z,56.26
2023-02-16T23:56:27.716Z,56.15
2023-02-16T23:59:31.823Z,54.89
